Terminal Aerodrome Forecast
Issued by NWS Twin Cities, MN

Home | Current Version | Previous Version | Text Only | Print | Product List | Glossary On
Versions: 1 2 3 4 5 6 7 8 9 10 11 12 13
000
FTUS43 KMPX 040812 AAA
TAFEAU
TAF AMD
KEAU 040812Z 0408/0506 14007KT 6SM -SN BR OVC025
      TEMPO 0408/0410 3SM -SN BR OVC015
     FM041000 14008KT 2SM -SN BR SCT007 OVC012
      TEMPO 0412/0416 1SM -SN BR BKN007
     FM042200 21007KT 4SM -SN OVC015
     FM050100 24006KT P6SM OVC007=

USA.gov is the U.S. government's official web portal to all federal, state and local government web resources and services.